Time;durP1;ratioP1;P1;durP2;ratioP2;P2;SDS_P1;SDS_P2;PMS_P1;PMS_P2;Temp;Humidity;BMP_temperature;BMP_pressure;BME280_temperature;BME280_humidity;BME280_pressure;Samples;Min_cycle;Max_cycle;Signal;HPM_P1;HPM_P2
2021/11/03 00:01:32;;;;;;;4.72;3.75;;;;;;;9.29;56.07;94160.88;4971056;28;20038;-74
2021/11/03 00:03:58;;;;;;;4.35;3.42;;;;;;;9.33;56.12;94167.13;4971140;28;20035;-74
2021/11/03 00:06:23;;;;;;;4.60;4.10;;;;;;;9.24;55.83;94153.09;4983418;28;20513;-74
2021/11/03 00:08:49;;;;;;;3.88;3.58;;;;;;;9.26;56.08;94158.84;4976645;28;20023;-73
2021/11/03 00:11:15;;;;;;;4.53;3.42;;;;;;;9.26;55.87;94164.16;4971027;28;20031;-73
2021/11/03 00:13:41;;;;;;;4.10;3.40;;;;;;;9.22;55.72;94166.69;4971047;28;20113;-76
2021/11/03 00:16:07;;;;;;;3.90;3.60;;;;;;;9.18;55.69;94160.47;4971240;28;20031;-72
2021/11/03 00:18:33;;;;;;;3.78;3.47;;;;;;;9.17;55.99;94158.91;4971674;28;20026;-72
2021/11/03 00:21:00;;;;;;;3.92;3.53;;;;;;;9.13;55.57;94150.03;4979223;28;20018;-73
2021/11/03 00:23:26;;;;;;;4.72;3.92;;;;;;;9.09;56.05;94149.09;4979486;28;20037;-73
2021/11/03 00:25:51;;;;;;;4.25;3.03;;;;;;;9.09;55.35;94146.44;4971328;28;20074;-73
2021/11/03 00:28:20;;;;;;;4.82;4.38;;;;;;;9.10;55.84;94137.38;4970763;28;20054;-75
2021/11/03 00:30:48;;;;;;;3.80;3.00;;;;;;;9.07;55.56;94132.72;4970850;28;20066;-73
2021/11/03 00:33:15;;;;;;;3.33;2.90;;;;;;;9.06;55.81;94118.69;4981463;28;20016;-73
2021/11/03 00:35:41;;;;;;;3.75;3.40;;;;;;;9.03;55.71;94115.91;4971745;28;20077;-75
2021/11/03 00:38:06;;;;;;;3.50;3.10;;;;;;;8.91;56.13;94097.22;4982467;28;20430;-72
2021/11/03 00:40:32;;;;;;;4.13;3.47;;;;;;;9.01;55.95;94110.13;4990073;28;20031;-73
2021/11/03 00:42:58;;;;;;;3.55;3.25;;;;;;;8.95;55.85;94087.53;4990517;28;20075;-73
2021/11/03 00:45:23;;;;;;;3.35;3.05;;;;;;;9.03;55.93;94092.03;4990606;28;20114;-73
2021/11/03 00:47:48;;;;;;;3.63;2.53;;;;;;;8.96;56.04;94066.00;4987685;28;20043;-74
2021/11/03 00:50:16;;;;;;;3.78;2.83;;;;;;;9.05;55.96;94071.25;4978366;28;20019;-76
2021/11/03 00:52:41;;;;;;;4.85;3.50;;;;;;;9.05;55.60;94076.56;4993899;28;20049;-73
2021/11/03 00:55:07;;;;;;;4.45;3.38;;;;;;;9.06;55.73;94075.47;4994294;28;20030;-75
2021/11/03 00:57:33;;;;;;;3.60;3.08;;;;;;;9.02;55.88;94080.63;4994376;28;20026;-75
2021/11/03 00:59:58;;;;;;;3.42;3.13;;;;;;;8.94;56.12;94064.75;4994261;28;20034;-75
2021/11/03 01:02:24;;;;;;;3.85;3.17;;;;;;;8.92;55.67;94075.69;4994097;28;20022;-75
2021/11/03 01:04:50;;;;;;;3.58;3.20;;;;;;;8.93;55.96;94065.84;4979526;28;20057;-75
2021/11/03 01:07:17;;;;;;;3.03;2.80;;;;;;;8.95;55.84;94067.06;4972837;28;20030;-75
2021/11/03 01:09:43;;;;;;;3.40;3.03;;;;;;;8.97;55.82;94080.81;4974845;28;20026;-75
2021/11/03 01:12:09;;;;;;;3.33;2.90;;;;;;;8.95;55.79;94075.03;4972836;28;20453;-74
2021/11/03 01:14:35;;;;;;;4.20;2.88;;;;;;;8.93;55.55;94076.47;4974331;28;20027;-75
2021/11/03 01:17:01;;;;;;;2.75;2.55;;;;;;;8.91;56.27;94073.38;4974918;28;20033;-75
2021/11/03 01:19:26;;;;;;;3.40;3.05;;;;;;;8.90;55.56;94077.88;4985696;28;20031;-75
2021/11/03 01:21:52;;;;;;;3.22;2.92;;;;;;;8.89;55.42;94078.97;4976614;28;20381;-75
2021/11/03 01:24:18;;;;;;;3.80;2.85;;;;;;;8.85;55.62;94081.50;4991401;28;20027;-75
2021/11/03 01:26:43;;;;;;;3.30;2.97;;;;;;;8.81;55.87;94079.78;4993571;28;20472;-75
2021/11/03 01:29:08;;;;;;;4.32;3.15;;;;;;;8.74;55.73;94068.88;4993729;28;20037;-75
2021/11/03 01:31:34;;;;;;;2.70;2.50;;;;;;;8.76;55.64;94072.78;4993369;28;20392;-74
2021/11/03 01:34:00;;;;;;;2.70;2.50;;;;;;;8.77;55.81;94071.69;4985762;28;20105;-74
2021/11/03 01:36:26;;;;;;;4.05;3.03;;;;;;;8.77;55.71;94073.56;4971165;28;20026;-74
2021/11/03 01:38:52;;;;;;;3.10;2.80;;;;;;;8.72;55.76;94065.78;5008359;28;20479;-75
2021/11/03 01:41:18;;;;;;;3.00;2.47;;;;;;;8.72;55.31;94076.38;4992865;28;20029;-75
2021/11/03 01:43:48;;;;;;;2.60;2.40;;;;;;;8.69;55.65;94072.50;4993226;28;20488;-75
2021/11/03 01:46:18;;;;;;;2.78;2.58;;;;;;;8.69;55.66;94059.22;4993405;28;20022;-75
2021/11/03 01:48:43;;;;;;;2.55;2.35;;;;;;;8.62;55.82;94051.00;4990243;28;20022;-76
2021/11/03 01:51:13;;;;;;;3.25;2.95;;;;;;;8.56;56.18;94046.97;4955178;28;20178;-74
2021/11/03 01:53:39;;;;;;;3.03;2.72;;;;;;;8.56;56.01;94050.41;4984577;28;20029;-74
2021/11/03 01:56:07;;;;;;;3.05;2.67;;;;;;;8.62;55.56;94051.00;4993116;28;20034;-74
2021/11/03 01:58:49;;;;;;;5.38;3.90;;;;;;;8.55;55.42;94037.47;4992883;28;20030;-75
2021/11/03 02:01:16;;;;;;;5.20;3.97;;;;;;;8.51;55.72;94033.91;4992104;28;20166;-75
2021/11/03 02:03:42;;;;;;;4.38;3.63;;;;;;;8.56;55.69;94037.16;4990315;28;20476;-75
2021/11/03 02:06:22;;;;;;;4.65;3.90;;;;;;;8.49;55.58;94028.91;4965944;28;20390;-75
2021/11/03 02:08:49;;;;;;;5.78;4.43;;;;;;;8.51;55.53;94012.69;4979104;28;20027;-75
2021/11/03 02:11:17;;;;;;;5.35;3.92;;;;;;;8.47;55.71;93999.28;4973111;28;20018;-74
2021/11/03 02:13:44;;;;;;;2.83;2.63;;;;;;;8.41;55.99;93986.56;4973042;28;20088;-74
2021/11/03 02:16:12;;;;;;;3.85;3.30;;;;;;;8.52;55.94;94003.66;4973439;28;20489;-75
2021/11/03 02:18:38;;;;;;;2.15;1.95;;;;;;;8.43;55.74;93987.78;4977272;28;20030;-74
2021/11/03 02:21:06;;;;;;;2.78;1.80;;;;;;;8.48;55.69;93997.41;4988027;28;20029;-74
2021/11/03 02:23:59;;;;;;;2.80;2.10;;;;;;;8.48;55.87;93998.19;4953471;28;20027;-74
2021/11/03 02:26:29;;;;;;;2.28;2.05;;;;;;;8.45;56.16;93996.19;4953785;28;20054;-74
2021/11/03 02:28:55;;;;;;;2.05;1.80;;;;;;;8.40;55.84;93980.47;4953769;28;20413;-74
2021/11/03 02:31:27;;;;;;;3.05;1.80;;;;;;;8.40;55.92;93974.41;4953301;28;20019;-74
2021/11/03 02:33:53;;;;;;;2.22;1.70;;;;;;;8.37;55.66;93980.31;4959401;28;20512;-74
2021/11/03 02:36:18;;;;;;;2.00;1.88;;;;;;;8.37;55.68;93970.50;4978167;28;20035;-74
2021/11/03 02:38:44;;;;;;;2.92;1.80;;;;;;;8.42;55.63;93970.31;4982564;28;20034;-74
2021/11/03 02:41:32;;;;;;;1.60;1.50;;;;;;;8.45;55.87;93976.88;4991817;28;20022;-74
2021/11/03 02:44:08;;;;;;;2.80;1.85;;;;;;;8.45;55.71;93977.66;4992072;28;20027;-74
2021/11/03 02:46:35;;;;;;;1.80;1.70;;;;;;;8.47;55.66;93970.16;4992245;28;20026;-74
2021/11/03 02:49:01;;;;;;;2.20;1.83;;;;;;;8.39;56.17;93956.91;4983963;28;20038;-73
2021/11/03 02:51:41;;;;;;;1.88;1.10;;;;;;;8.46;55.82;93951.94;4977611;28;20491;-75
2021/11/03 02:54:16;;;;;;;1.77;1.55;;;;;;;8.49;55.52;93960.00;4975139;28;20023;-74
2021/11/03 02:56:45;;;;;;;1.50;1.40;;;;;;;8.50;55.74;93958.16;4972486;28;20073;-74
2021/11/03 02:59:13;;;;;;;1.42;1.23;;;;;;;8.51;55.85;93954.41;4972607;28;20042;-74
2021/11/03 03:01:42;;;;;;;1.58;1.45;;;;;;;8.54;55.98;93961.69;4971486;28;20033;-74
2021/11/03 03:04:11;;;;;;;1.52;1.30;;;;;;;8.52;55.62;93943.47;4968400;28;20087;-74
2021/11/03 03:06:37;;;;;;;0.88;0.85;;;;;;;8.54;55.75;93937.84;4969881;28;20055;-75
2021/11/03 03:09:04;;;;;;;1.20;1.10;;;;;;;8.58;55.82;93930.81;4983920;28;20026;-74
2021/11/03 03:11:32;;;;;;;1.52;1.15;;;;;;;8.61;55.86;93927.53;4971501;28;20103;-74
2021/11/03 03:13:57;;;;;;;1.30;1.20;;;;;;;8.61;55.59;93919.56;4972132;28;20114;-75
2021/11/03 03:16:23;;;;;;;1.60;1.50;;;;;;;8.63;55.80;93912.06;4971866;28;20109;-74
2021/11/03 03:18:49;;;;;;;2.95;1.75;;;;;;;8.62;55.92;93896.50;4970919;28;20023;-73
2021/11/03 03:21:16;;;;;;;1.30;1.20;;;;;;;8.65;55.76;93893.97;4979963;28;20030;-75
2021/11/03 03:23:42;;;;;;;1.33;1.20;;;;;;;8.73;55.99;93906.41;4984727;28;20036;-74
2021/11/03 03:26:11;;;;;;;2.88;1.33;;;;;;;8.71;55.85;93903.28;4991512;28;20029;-72
2021/11/03 03:28:38;;;;;;;1.95;1.23;;;;;;;8.77;55.71;93931.16;4991663;28;20113;-74
2021/11/03 03:31:05;;;;;;;1.40;1.30;;;;;;;8.69;55.39;93920.59;4991191;28;20029;-73
2021/11/03 03:33:30;;;;;;;2.25;1.20;;;;;;;8.66;55.20;93913.31;4987609;28;20029;-73
2021/11/03 03:35:56;;;;;;;2.08;1.52;;;;;;;8.64;55.46;93920.78;4990098;28;20392;-73
2021/11/03 03:38:21;;;;;;;1.13;1.02;;;;;;;8.64;55.49;93926.88;4978960;28;20468;-74
2021/11/03 03:40:47;;;;;;;1.33;1.23;;;;;;;8.68;55.63;93933.09;4971663;28;20081;-74
2021/11/03 03:43:13;;;;;;;1.60;1.50;;;;;;;8.66;55.41;93930.00;4971963;28;20023;-73
2021/11/03 03:45:38;;;;;;;1.58;1.48;;;;;;;8.57;55.48;93927.38;4971975;28;20492;-73
2021/11/03 03:48:04;;;;;;;3.38;2.92;;;;;;;8.34;56.87;93937.44;4971973;28;20187;-73
2021/11/03 03:50:30;;;;;;;11.35;10.25;;;;;;;8.37;56.83;93937.94;4963892;28;20030;-74
2021/11/03 03:52:56;;;;;;;16.73;14.85;;;;;;;8.35;56.30;93919.69;4978416;28;20030;-73
2021/11/03 03:55:21;;;;;;;22.92;18.80;;;;;;;8.32;56.57;93918.44;4989930;28;20034;-74
2021/11/03 03:57:46;;;;;;;27.08;20.42;;;;;;;8.49;56.55;93922.13;4990765;28;20033;-73
2021/11/03 04:00:16;;;;;;;29.33;20.55;;;;;;;8.48;56.20;93917.91;4990654;28;20026;-73
2021/11/03 04:02:43;;;;;;;29.02;23.15;;;;;;;8.47;56.41;93913.72;4990922;28;20072;-73
2021/11/03 04:05:14;;;;;;;45.85;29.77;;;;;;;8.49;56.36;93919.47;4966054;28;20035;-73
2021/11/03 04:07:39;;;;;;;53.75;34.00;;;;;;;8.42;56.54;93912.03;4978702;28;20023;-73
2021/11/03 04:10:05;;;;;;;54.90;35.72;;;;;;;8.48;56.32;93918.69;4983929;28;20388;-74
2021/11/03 04:12:31;;;;;;;53.00;34.95;;;;;;;8.50;56.41;93915.75;4990422;28;20026;-73
2021/11/03 04:14:56;;;;;;;53.47;35.95;;;;;;;8.52;56.52;93916.19;4990629;28;20033;-73
2021/11/03 04:17:22;;;;;;;62.65;36.53;;;;;;;8.49;55.89;93909.63;4991039;28;20029;-73
2021/11/03 04:19:47;;;;;;;58.58;37.10;;;;;;;8.48;56.28;93918.69;4970935;28;20552;-73
2021/11/03 04:22:13;;;;;;;53.25;35.33;;;;;;;8.47;55.98;93913.72;4977793;28;20027;-73
2021/11/03 04:24:38;;;;;;;60.53;35.83;;;;;;;8.49;55.78;93911.53;4994431;28;20038;-73
2021/11/03 04:27:04;;;;;;;68.38;37.05;;;;;;;8.47;56.30;93903.13;4993519;28;20049;-72
2021/11/03 04:29:29;;;;;;;51.15;33.58;;;;;;;8.53;56.31;93907.91;4994529;28;20026;-74
2021/11/03 04:31:55;;;;;;;47.10;31.73;;;;;;;8.50;55.83;93900.63;4994232;28;20027;-73
2021/11/03 04:34:21;;;;;;;50.45;33.85;;;;;;;8.55;56.23;93903.09;4986518;28;20027;-73
2021/11/03 04:36:47;;;;;;;51.85;31.08;;;;;;;8.55;55.93;93892.47;4983166;28;20031;-73
2021/11/03 04:39:13;;;;;;;40.15;28.33;;;;;;;8.53;55.95;93897.31;4986216;28;20027;-74
2021/11/03 04:41:39;;;;;;;38.67;26.50;;;;;;;8.56;56.27;93887.97;4994204;28;20121;-73
2021/11/03 04:44:06;;;;;;;32.17;24.42;;;;;;;8.52;56.22;93879.09;4994139;28;20525;-73
2021/11/03 04:46:31;;;;;;;32.80;22.70;;;;;;;8.52;56.40;93874.56;4994573;28;20038;-74
2021/11/03 04:48:57;;;;;;;41.17;23.88;;;;;;;8.48;56.10;93871.00;4989491;28;20145;-73
2021/11/03 04:51:23;;;;;;;27.30;21.27;;;;;;;8.54;55.79;93868.94;4970242;28;20476;-73
2021/11/03 04:53:49;;;;;;;25.42;18.67;;;;;;;8.61;56.15;93879.81;4985950;28;20030;-73
2021/11/03 04:56:19;;;;;;;27.38;20.00;;;;;;;8.41;56.07;93835.50;4993796;28;20030;-73
2021/11/03 04:58:46;;;;;;;26.05;18.83;;;;;;;8.59;55.90;93858.91;4993882;28;20062;-73
2021/11/03 05:01:11;;;;;;;21.10;16.80;;;;;;;8.61;55.85;93861.25;4993631;28;20029;-73
2021/11/03 05:03:36;;;;;;;27.98;18.52;;;;;;;8.57;56.50;93857.69;4993780;28;20022;-73
2021/11/03 05:06:02;;;;;;;21.67;16.80;;;;;;;8.58;56.53;93851.28;4979402;28;20026;-73
2021/11/03 05:08:28;;;;;;;23.83;16.50;;;;;;;8.73;56.38;93863.97;4985214;28;20038;-73
2021/11/03 05:10:54;;;;;;;22.42;16.30;;;;;;;8.71;56.29;93852.94;4993140;28;20030;-73
2021/11/03 05:13:19;;;;;;;19.80;16.10;;;;;;;8.73;56.35;93849.94;4993545;28;20022;-74
2021/11/03 05:15:45;;;;;;;21.63;17.20;;;;;;;8.69;56.50;93828.59;4993866;28;20058;-73
2021/11/03 05:18:10;;;;;;;24.42;17.52;;;;;;;8.79;55.83;93846.78;4994056;28;20027;-73
2021/11/03 05:20:36;;;;;;;27.45;17.38;;;;;;;8.80;56.11;93845.69;4978992;28;20030;-73
2021/11/03 05:23:02;;;;;;;19.08;17.08;;;;;;;8.92;56.28;93855.56;5000708;28;20038;-73
2021/11/03 05:25:28;;;;;;;27.40;17.95;;;;;;;8.88;56.36;93837.97;4973905;28;20102;-73
2021/11/03 05:27:55;;;;;;;26.48;17.45;;;;;;;8.97;55.87;93844.00;4974130;28;20033;-73
2021/11/03 05:30:23;;;;;;;19.65;16.00;;;;;;;8.99;56.09;93847.09;4973421;28;20057;-73
2021/11/03 05:32:48;;;;;;;18.92;15.65;;;;;;;9.06;56.15;93847.34;4972168;28;20385;-73
2021/11/03 05:35:15;;;;;;;15.88;14.27;;;;;;;9.07;55.85;93844.38;4979875;28;20031;-74
2021/11/03 05:37:41;;;;;;;16.38;13.20;;;;;;;9.07;55.69;93838.28;4969531;28;20027;-73
2021/11/03 05:40:11;;;;;;;20.20;11.50;;;;;;;8.83;56.79;93839.72;4989364;28;20089;-74
2021/11/03 05:42:36;;;;;;;12.18;10.15;;;;;;;9.03;56.49;93821.47;4992448;28;20082;-72
2021/11/03 05:45:03;;;;;;;11.18;9.32;;;;;;;8.99;55.79;93805.44;4993051;28;20031;-73
2021/11/03 05:47:29;;;;;;;13.20;9.68;;;;;;;9.31;55.66;93835.72;4993138;28;20023;-73
2021/11/03 05:49:57;;;;;;;14.77;10.80;;;;;;;9.17;56.07;93815.91;4988409;28;20030;-69
2021/11/03 05:52:23;;;;;;;17.70;12.25;;;;;;;9.27;56.46;93823.44;4989981;28;20031;-69
2021/11/03 05:54:49;;;;;;;14.63;10.70;;;;;;;9.18;56.75;93818.22;4965602;28;20084;-69
2021/11/03 05:57:27;;;;;;;14.27;12.55;;;;;;;9.43;56.04;93827.03;4992656;28;20026;-69
2021/11/03 05:59:54;;;;;;;16.35;13.00;;;;;;;9.57;55.53;93824.06;4992400;28;20102;-71
2021/11/03 06:02:21;;;;;;;11.23;10.23;;;;;;;9.65;54.97;93825.84;4991939;28;20023;-67
2021/11/03 06:04:46;;;;;;;11.32;10.02;;;;;;;9.93;54.77;93831.31;4989907;28;20501;-75
2021/11/03 06:07:13;;;;;;;11.68;9.80;;;;;;;10.01;53.23;93821.69;4954047;28;20054;-84
2021/11/03 06:09:38;;;;;;;14.32;10.25;;;;;;;10.09;53.01;93816.28;4954474;29;20027;-77
2021/11/03 06:12:05;;;;;;;10.02;9.02;;;;;;;10.08;52.64;93821.88;4969584;28;20038;-73
2021/11/03 06:14:30;;;;;;;10.85;8.80;;;;;;;10.07;53.12;93807.06;4953836;29;20131;-79
2021/11/03 06:16:55;;;;;;;9.45;8.55;;;;;;;9.98;52.70;93809.06;4953948;29;20617;-75
2021/11/03 06:19:21;;;;;;;7.55;6.85;;;;;;;9.75;53.12;93795.44;4956125;28;20031;-70
2021/11/03 06:21:46;;;;;;;8.50;7.63;;;;;;;9.75;53.33;93798.88;4999078;28;20034;-67
2021/11/03 06:24:12;;;;;;;8.52;7.72;;;;;;;9.82;53.06;93799.09;4970613;28;20577;-84
2021/11/03 06:26:37;;;;;;;7.60;6.90;;;;;;;9.88;53.37;93800.44;4953310;29;20392;-69
2021/11/03 06:29:06;;;;;;;8.13;7.43;;;;;;;9.90;53.59;93795.56;4953530;28;20031;-73
2021/11/03 06:31:32;;;;;;;6.85;6.25;;;;;;;9.95;52.74;93807.84;4953088;28;20059;-73
2021/11/03 06:33:57;;;;;;;7.97;7.20;;;;;;;10.09;52.80;93818.16;4953782;28;20125;-75
2021/11/03 06:36:22;;;;;;;7.05;6.00;;;;;;;10.08;52.95;93822.69;4969754;28;20102;-81
2021/11/03 06:38:48;;;;;;;7.50;6.80;;;;;;;9.73;53.79;93809.06;4981797;28;20431;-81
2021/11/03 06:41:15;;;;;;;7.13;6.53;;;;;;;9.72;54.51;93809.38;4992429;28;20101;-70
2021/11/03 06:43:42;;;;;;;7.25;6.65;;;;;;;10.00;53.37;93804.19;5007064;28;20080;-72
2021/11/03 06:46:08;;;;;;;7.30;6.65;;;;;;;10.21;53.17;93806.75;4990387;28;20018;-70
2021/11/03 06:48:33;;;;;;;6.60;5.90;;;;;;;10.37;52.48;93797.78;4991966;28;20102;-68
2021/11/03 06:50:59;;;;;;;6.47;5.88;;;;;;;10.56;52.19;93812.38;4976771;28;20029;-74
2021/11/03 06:53:26;;;;;;;7.07;6.38;;;;;;;10.67;51.78;93800.16;4971316;28;20042;-75
2021/11/03 06:55:53;;;;;;;6.57;5.97;;;;;;;10.79;52.24;93805.44;4972092;28;20038;-71
2021/11/03 06:58:21;;;;;;;6.80;6.20;;;;;;;10.94;51.47;93802.06;4972189;28;20023;-75
2021/11/03 07:00:50;;;;;;;6.82;6.00;;;;;;;11.21;50.61;93799.75;4972876;28;20037;-75
2021/11/03 07:03:16;;;;;;;6.65;5.95;;;;;;;11.40;50.41;93793.75;4973547;28;20030;-81
2021/11/03 07:05:43;;;;;;;7.00;6.40;;;;;;;11.21;49.74;93799.75;4965808;28;20040;-75
2021/11/03 07:08:10;;;;;;;6.72;5.75;;;;;;;11.36;49.70;93791.03;4980261;28;20396;-74
2021/11/03 07:10:39;;;;;;;7.70;7.00;;;;;;;11.42;50.44;93794.22;4984333;28;20092;-76
2021/11/03 07:13:05;;;;;;;6.63;6.03;;;;;;;11.50;49.71;93787.16;4991992;28;20030;-78
2021/11/03 07:15:32;;;;;;;8.38;6.38;;;;;;;11.17;49.83;93777.59;4991270;28;20585;-71
2021/11/03 07:17:57;;;;;;;7.07;6.47;;;;;;;11.44;50.27;93789.31;4991259;28;20035;-71
2021/11/03 07:20:25;;;;;;;7.15;6.53;;;;;;;11.60;50.42;93789.31;4974726;28;20510;-70
2021/11/03 07:22:50;;;;;;;6.28;5.75;;;;;;;11.63;50.00;93797.41;4974058;28;20027;-69
2021/11/03 07:25:19;;;;;;;6.70;5.50;;;;;;;11.68;49.43;93791.06;4971574;28;20041;-69
2021/11/03 07:27:46;;;;;;;5.95;5.15;;;;;;;11.66;49.53;93795.94;4971610;28;20027;-69
2021/11/03 07:30:13;;;;;;;6.68;6.03;;;;;;;11.72;49.67;93789.25;4970967;28;20078;-69
2021/11/03 07:32:38;;;;;;;6.90;5.82;;;;;;;11.71;49.23;93775.13;4971244;28;20078;-69
2021/11/03 07:35:05;;;;;;;6.32;5.13;;;;;;;12.00;48.80;93781.19;4967899;28;20043;-69
2021/11/03 07:37:30;;;;;;;5.03;4.63;;;;;;;11.93;49.61;93781.03;4971679;28;20023;-69
2021/11/03 07:39:56;;;;;;;4.97;4.55;;;;;;;11.77;49.10;93775.66;4982351;28;20026;-69
2021/11/03 07:42:21;;;;;;;5.35;4.95;;;;;;;12.10;48.65;93766.56;4990123;28;20030;-70
2021/11/03 07:44:48;;;;;;;6.60;4.22;;;;;;;12.00;48.45;93722.56;5005354;28;20476;-69
2021/11/03 07:47:13;;;;;;;5.38;4.75;;;;;;;12.02;49.12;93760.28;4989259;28;20030;-69
2021/11/03 07:49:38;;;;;;;4.80;4.40;;;;;;;12.43;48.07;93763.47;4988056;28;20026;-68
2021/11/03 07:52:04;;;;;;;4.18;3.85;;;;;;;12.64;48.15;93769.28;4972546;28;20027;-69
2021/11/03 07:54:30;;;;;;;5.35;4.22;;;;;;;12.82;47.67;93774.19;4970645;28;20054;-68
2021/11/03 07:56:55;;;;;;;4.20;3.80;;;;;;;12.87;47.24;93777.34;4970823;28;20521;-68
2021/11/03 07:59:21;;;;;;;4.30;3.95;;;;;;;12.94;46.91;93772.13;4970816;28;20023;-68
2021/11/03 08:01:47;;;;;;;4.80;4.10;;;;;;;13.01;47.13;93774.19;4970447;28;20043;-68
2021/11/03 08:04:12;;;;;;;4.40;4.00;;;;;;;13.09;47.04;93767.09;4970792;28;20026;-68
2021/11/03 08:06:39;;;;;;;5.00;4.50;;;;;;;12.85;46.89;93770.84;4973370;28;20022;-68
2021/11/03 08:09:06;;;;;;;3.70;3.40;;;;;;;12.94;47.44;93766.81;4968554;28;20096;-68
2021/11/03 08:11:55;;;;;;;5.95;4.60;;;;;;;12.99;46.93;93773.75;4970571;28;20034;-68
2021/11/03 08:14:26;;;;;;;4.80;3.45;;;;;;;13.00;47.12;93762.75;4970574;28;20022;-68
2021/11/03 08:17:07;;;;;;;3.97;3.58;;;;;;;13.08;47.27;93766.31;4969759;28;20377;-68
2021/11/03 08:19:39;;;;;;;6.63;4.25;;;;;;;13.12;46.85;93759.16;4985708;28;20043;-70
2021/11/03 08:22:06;;;;;;;3.90;3.47;;;;;;;13.13;46.98;93765.25;4991412;28;20031;-70
2021/11/03 08:24:31;;;;;;;3.60;3.28;;;;;;;13.18;46.87;93752.41;4990230;28;20085;-70
2021/11/03 08:26:57;;;;;;;3.95;3.53;;;;;;;13.09;46.70;93743.06;4990366;28;20034;-69
2021/11/03 08:29:24;;;;;;;3.47;3.17;;;;;;;13.23;46.87;93770.06;4989876;28;20101;-68
2021/11/03 08:31:55;;;;;;;5.63;3.00;;;;;;;13.34;46.72;93756.91;4989693;28;20030;-68
2021/11/03 08:34:22;;;;;;;3.58;3.28;;;;;;;13.52;46.31;93763.34;4990055;28;20053;-74
2021/11/03 08:36:47;;;;;;;4.93;3.00;;;;;;;13.49;46.30;93750.69;4976419;28;20106;-67
2021/11/03 08:39:13;;;;;;;3.75;2.83;;;;;;;13.70;45.67;93748.34;4977224;28;20733;-67
2021/11/03 08:41:39;;;;;;;4.47;3.10;;;;;;;13.78;45.73;93747.34;4989574;28;20045;-67
2021/11/03 08:44:04;;;;;;;3.47;2.72;;;;;;;14.09;45.58;93753.56;4989514;28;20038;-68
2021/11/03 08:46:30;;;;;;;3.28;2.97;;;;;;;14.26;44.52;93754.94;4989906;28;20686;-68
2021/11/03 08:48:57;;;;;;;3.38;3.05;;;;;;;14.31;44.63;93739.34;4988572;28;20025;-67
2021/11/03 08:51:27;;;;;;;3.10;2.90;;;;;;;14.41;44.44;93737.19;4977107;28;20019;-67
2021/11/03 08:53:54;;;;;;;3.17;2.90;;;;;;;14.61;44.15;93735.19;4977405;28;20254;-67
2021/11/03 08:56:20;;;;;;;5.63;2.75;;;;;;;14.68;43.61;93736.03;4988178;28;20034;-67
2021/11/03 08:58:46;;;;;;;4.38;2.78;;;;;;;14.69;43.31;93740.28;4989693;28;20026;-67
2021/11/03 09:01:11;;;;;;;5.20;3.85;;;;;;;14.79;43.50;93730.81;4989191;28;20026;-68
2021/11/03 09:03:40;;;;;;;3.78;3.13;;;;;;;14.95;43.22;93715.34;4989569;28;20054;-67
2021/11/03 09:06:06;;;;;;;3.25;2.95;;;;;;;15.13;42.98;93720.88;4980650;28;20031;-68
2021/11/03 09:08:32;;;;;;;3.30;3.00;;;;;;;15.26;42.90;93719.50;4981704;28;20026;-68
2021/11/03 09:11:00;;;;;;;3.40;3.10;;;;;;;15.37;42.39;93716.16;4984587;28;20383;-68
2021/11/03 09:13:28;;;;;;;3.35;3.10;;;;;;;15.47;42.26;93716.25;4992697;28;20026;-68
2021/11/03 09:15:56;;;;;;;4.68;3.35;;;;;;;15.49;41.63;93718.56;4991447;28;20034;-67
2021/11/03 09:18:21;;;;;;;3.78;3.47;;;;;;;15.54;42.22;93710.94;4992537;28;20042;-67
2021/11/03 09:20:49;;;;;;;3.05;2.85;;;;;;;15.59;41.75;93710.59;4989690;28;20097;-67
2021/11/03 09:23:16;;;;;;;3.10;2.47;;;;;;;15.62;41.65;93689.56;4999552;28;20388;-67
2021/11/03 09:25:42;;;;;;;3.58;2.88;;;;;;;15.73;41.23;93695.81;4992962;28;20361;-67
2021/11/03 09:28:08;;;;;;;3.65;3.13;;;;;;;15.84;41.85;93680.56;5007802;28;20030;-67
2021/11/03 09:30:35;;;;;;;4.80;3.03;;;;;;;16.00;41.20;93686.44;4992504;28;20350;-67
2021/11/03 09:33:02;;;;;;;3.58;3.28;;;;;;;15.98;41.34;93678.00;4992410;28;20030;-67
2021/11/03 09:35:31;;;;;;;5.72;3.10;;;;;;;16.02;41.29;93664.59;4990465;28;20022;-68
2021/11/03 09:37:58;;;;;;;3.25;2.92;;;;;;;16.07;40.63;93677.66;4978111;28;20476;-67
2021/11/03 09:40:43;;;;;;;3.63;2.75;;;;;;;16.08;41.19;93688.03;4982518;28;20394;-67
2021/11/03 09:43:30;;;;;;;4.55;2.92;;;;;;;16.23;40.91;93680.06;4981051;28;20255;-67
2021/11/03 09:45:57;;;;;;;4.50;3.17;;;;;;;16.45;40.59;93691.69;4992471;28;20022;-68
2021/11/03 09:51:13;;;;;;;3.28;3.00;;;;;;;16.80;40.83;93681.13;5025869;23;20058;-70
2021/11/03 09:54:02;;;;;;;8.48;3.20;;;;;;;16.97;40.16;93678.88;4965900;28;20037;-66
2021/11/03 09:56:52;;;;;;;3.95;2.83;;;;;;;17.15;39.90;93664.34;4966222;28;20038;-69
2021/11/03 09:59:56;;;;;;;2.60;2.40;;;;;;;17.14;39.44;93667.38;4991780;28;20443;-69
2021/11/03 10:02:40;;;;;;;2.95;2.63;;;;;;;17.22;39.58;93660.88;4953334;29;20610;-66
2021/11/03 10:05:06;;;;;;;3.33;2.65;;;;;;;17.34;39.27;93671.25;4954082;28;20110;-66
2021/11/03 10:07:34;;;;;;;2.95;2.60;;;;;;;17.36;38.96;93665.53;4972897;28;20560;-66
2021/11/03 10:10:40;;;;;;;2.65;2.40;;;;;;;17.22;38.89;93660.13;4976144;28;20377;-65
2021/11/03 10:13:24;;;;;;;5.15;2.85;;;;;;;17.26;39.16;93661.69;4950285;28;20035;-65
2021/11/03 10:15:59;;;;;;;5.78;2.63;;;;;;;17.33;38.66;93661.66;4953320;28;20035;-66
2021/11/03 10:18:28;;;;;;;2.90;2.70;;;;;;;17.40;38.72;93656.31;4953557;28;20031;-66
2021/11/03 10:21:05;;;;;;;2.65;2.30;;;;;;;17.44;38.74;93661.69;4954434;28;20110;-66
2021/11/03 10:23:33;;;;;;;4.90;1.98;;;;;;;17.36;38.59;93642.09;4971212;28;20018;-65
2021/11/03 10:26:12;;;;;;;2.65;2.13;;;;;;;17.35;38.59;93640.56;4983707;28;20030;-66
2021/11/03 10:28:47;;;;;;;2.42;2.08;;;;;;;17.25;38.78;93638.66;4991971;28;20026;-66
2021/11/03 10:31:32;;;;;;;4.75;2.28;;;;;;;17.24;38.66;93636.31;4991540;28;20050;-68
2021/11/03 10:34:16;;;;;;;3.55;2.00;;;;;;;17.31;38.78;93639.78;4991595;28;20026;-66
2021/11/03 10:36:44;;;;;;;2.65;2.22;;;;;;;17.28;38.79;93627.13;4975540;28;20042;-69
2021/11/03 10:39:19;;;;;;;3.28;2.13;;;;;;;17.40;38.65;93634.81;4969181;28;20026;-66
2021/11/03 10:42:00;;;;;;;3.10;2.15;;;;;;;17.33;38.74;93620.59;4985568;28;20519;-66
2021/11/03 10:44:28;;;;;;;2.45;2.15;;;;;;;17.47;38.91;93623.28;4991462;28;20074;-67
2021/11/03 10:46:58;;;;;;;2.92;2.20;;;;;;;17.22;39.38;93631.34;4991956;28;20053;-68
2021/11/03 10:49:45;;;;;;;2.25;2.10;;;;;;;17.36;39.08;93627.91;4990974;28;20173;-69
2021/11/03 10:52:34;;;;;;;2.72;2.03;;;;;;;17.39;38.84;93633.25;4974450;28;20023;-78
2021/11/03 10:55:13;;;;;;;4.13;2.15;;;;;;;17.46;38.67;93629.81;5001519;28;20056;-73
2021/11/03 10:57:43;;;;;;;3.15;2.20;;;;;;;17.56;38.87;93626.38;4991792;28;20026;-72
2021/11/03 11:00:18;;;;;;;3.28;1.95;;;;;;;17.51;38.79;93639.44;4991001;28;20030;-70
2021/11/03 11:02:50;;;;;;;3.20;1.73;;;;;;;17.44;38.79;93636.72;4989627;28;20038;-70
2021/11/03 11:05:20;;;;;;;3.10;1.70;;;;;;;17.29;38.78;93633.25;4991438;28;20088;-72
2021/11/03 11:07:51;;;;;;;11.45;2.20;;;;;;;17.06;39.03;93633.63;4965853;28;20065;-69
2021/11/03 11:10:29;;;;;;;1.77;1.60;;;;;;;17.20;39.02;93640.91;4979272;28;20041;-71
2021/11/03 11:12:56;;;;;;;3.40;1.70;;;;;;;17.03;39.41;93637.06;4991035;28;20026;-71
2021/11/03 11:15:40;;;;;;;1.80;1.70;;;;;;;16.60;39.40;93640.38;4990957;28;20057;-71
2021/11/03 11:18:31;;;;;;;2.42;2.10;;;;;;;17.05;39.56;93627.47;4990659;28;20538;-70
2021/11/03 11:21:01;;;;;;;3.08;1.60;;;;;;;17.01;39.50;93609.81;4980258;28;20114;-70
2021/11/03 11:23:37;;;;;;;3.08;1.83;;;;;;;16.94;39.64;93599.84;4971075;28;20018;-70
2021/11/03 11:26:23;;;;;;;2.20;1.95;;;;;;;17.08;39.68;93585.63;4983190;28;20026;-73
2021/11/03 11:29:12;;;;;;;2.58;1.92;;;;;;;17.10;39.56;93599.47;4990779;28;20081;-72
2021/11/03 11:31:44;;;;;;;3.45;2.55;;;;;;;16.73;40.02;93591.72;4990753;28;20032;-70
2021/11/03 11:34:48;;;;;;;3.38;2.33;;;;;;;16.35;40.45;93604.63;4990504;28;20052;-70
2021/11/03 11:37:35;;;;;;;2.20;1.80;;;;;;;16.62;40.59;93591.66;4970719;28;20423;-70
2021/11/03 11:40:12;;;;;;;3.78;1.95;;;;;;;16.44;40.79;93594.31;4974552;28;20038;-73
2021/11/03 11:43:00;;;;;;;4.90;1.85;;;;;;;16.55;40.85;93595.09;4951964;28;20110;-70
2021/11/03 11:45:32;;;;;;;2.72;2.35;;;;;;;16.56;40.57;93583.22;4951997;28;20040;-71